McKinley, Ohio
Current Conditions -  °F | °C
As of 8:51 AM on Monday 20 Oct 2014 (Local Time) from KCAK Reporting Station
Overcast Overcast  
Wind Chill: 42°   Ceiling: 9000
Heat Index: 47°   Visibility: 10mi
Dew Point: 39°   Wind: 10mph
Humidity: 74%   Direction: 200°SSW
Pressure: 29.96"   Gusts: NA
Location:  40.7991°N, 81.3409°W
Report Text: KCAK 201251Z 20009KT 10SM BKN090 OVC220 08/04 A2996 RMK AO2 RAB39E49 SLP151 P0000 T00830039 $
Loading
Personal Weather Stations






























Interactive Weather Map
Tropical Storm Tracking
New forecast layout! Learn more

10-Day Weather Forecast

Advertisements
Track Severe Weather on mobile